Time;durP1;ratioP1;P1;durP2;ratioP2;P2;SDS_P1;SDS_P2;PMS_P1;PMS_P2;Temp;Humidity;BMP_temperature;BMP_pressure;BME280_temperature;BME280_humidity;BME280_pressure;Samples;Min_cycle;Max_cycle;Signal;HPM_P1;HPM_P2
2023/09/21 00:01:03;;;;;;;9.75;5.68;;;20.30;54.10;;;;;;5009023;28;114906;-79
2023/09/21 00:03:31;;;;;;;6.35;3.65;;;20.40;53.80;;;;;;4994421;28;115171;-79
2023/09/21 00:05:58;;;;;;;5.78;3.67;;;20.30;54.20;;;;;;5009220;28;114316;-80
2023/09/21 00:08:25;;;;;;;7.63;4.15;;;20.30;54.20;;;;;;5027721;28;114123;-79
2023/09/21 00:10:53;;;;;;;6.53;3.83;;;20.30;54.10;;;;;;5008373;27;114830;-80
2023/09/21 00:13:22;;;;;;;6.57;4.18;;;20.30;54.20;;;;;;4992304;28;114696;-80
2023/09/21 00:15:49;;;;;;;14.20;7.22;;;20.40;54.10;;;;;;5013234;28;114135;-80
2023/09/21 00:18:16;;;;;;;12.52;5.85;;;20.30;53.80;;;;;;5011336;28;115964;-80
2023/09/21 00:20:48;;;;;;;10.27;5.38;;;20.30;54.10;;;;;;5008948;28;115038;-80
2023/09/21 00:23:16;;;;;;;9.90;5.45;;;20.30;54.10;;;;;;5009563;28;114660;-79
2023/09/21 00:25:43;;;;;;;9.80;4.88;;;20.30;54.10;;;;;;5027904;28;114128;-80
2023/09/21 00:28:13;;;;;;;9.95;5.50;;;20.30;54.20;;;;;;5011165;28;114439;-79
2023/09/21 00:30:41;;;;;;;8.30;4.78;;;20.30;54.00;;;;;;5010417;28;115059;-79
2023/09/21 00:33:09;;;;;;;8.82;5.25;;;20.30;54.20;;;;;;5009801;28;114684;-81
2023/09/21 00:35:39;;;;;;;9.35;4.85;;;20.30;54.00;;;;;;5026962;28;114250;-80
2023/09/21 00:38:10;;;;;;;9.25;4.95;;;20.30;54.20;;;;;;4977741;28;114238;-79
2023/09/21 00:40:40;;;;;;;9.93;5.68;;;20.30;54.30;;;;;;5008520;28;114934;-80
2023/09/21 00:43:09;;;;;;;15.00;7.40;;;20.30;54.20;;;;;;5026609;28;114964;-80
2023/09/21 00:45:37;;;;;;;13.70;7.15;;;20.30;53.90;;;;;;5010523;28;114165;-78
2023/09/21 00:48:12;;;;;;;9.70;5.50;;;20.20;54.10;;;;;;5009405;28;114147;-79
2023/09/21 00:50:44;;;;;;;9.75;5.10;;;20.20;54.50;;;;;;5009628;28;114994;-78
2023/09/21 00:53:13;;;;;;;12.40;5.85;;;20.10;54.40;;;;;;5008327;28;115859;-78
2023/09/21 00:55:42;;;;;;;12.60;6.35;;;20.10;54.60;;;;;;5008888;28;114387;-79
2023/09/21 00:58:09;;;;;;;11.20;6.22;;;20.00;54.60;;;;;;4975366;28;114417;-79
2023/09/21 01:00:36;;;;;;;17.15;8.88;;;20.10;54.50;;;;;;5007677;28;114931;-79
2023/09/21 01:03:11;;;;;;;10.98;6.00;;;20.20;54.20;;;;;;5008055;28;116357;-79
2023/09/21 01:05:40;;;;;;;14.77;8.05;;;20.10;54.60;;;;;;5007861;28;114262;-80
2023/09/21 01:08:11;;;;;;;10.27;5.78;;;20.10;54.50;;;;;;5027160;28;114038;-79
2023/09/21 01:10:42;;;;;;;12.40;6.03;;;20.20;54.70;;;;;;5026727;28;115052;-80
2023/09/21 01:13:11;;;;;;;11.63;5.82;;;20.20;54.20;;;;;;5008201;28;114640;-79
2023/09/21 01:15:41;;;;;;;10.52;6.07;;;20.10;54.50;;;;;;5009426;28;114381;-79
2023/09/21 01:18:08;;;;;;;12.15;6.35;;;20.10;54.60;;;;;;5026981;28;114181;-80
2023/09/21 01:20:37;;;;;;;11.57;5.93;;;20.10;54.60;;;;;;5007934;28;114905;-79
2023/09/21 01:23:18;;;;;;;10.90;6.15;;;20.20;54.10;;;;;;5007898;28;114611;-79
2023/09/21 01:25:50;;;;;;;9.70;6.00;;;20.10;54.50;;;;;;5009242;28;114407;-79
2023/09/21 01:28:19;;;;;;;10.57;5.50;;;20.10;54.50;;;;;;5008843;28;114319;-79
2023/09/21 01:30:46;;;;;;;11.13;5.90;;;20.20;54.60;;;;;;5026188;28;114963;-78
2023/09/21 01:33:15;;;;;;;9.90;5.15;;;20.10;54.50;;;;;;5007608;28;117368;-81
2023/09/21 01:35:45;;;;;;;10.15;5.93;;;20.10;54.30;;;;;;5008571;28;114372;-78
2023/09/21 01:38:13;;;;;;;9.82;5.53;;;20.10;54.60;;;;;;5026554;28;114145;-78
2023/09/21 01:40:42;;;;;;;10.48;5.88;;;20.10;54.60;;;;;;5007488;28;115412;-79
2023/09/21 01:43:10;;;;;;;9.82;5.10;;;20.10;54.50;;;;;;5025964;28;114658;-78
2023/09/21 01:45:42;;;;;;;7.20;3.42;;;20.10;54.10;;;;;;5035943;27;114143;-78
2023/09/21 01:48:10;;;;;;;6.43;3.05;;;20.00;53.50;;;;;;5046500;27;114299;-79
2023/09/21 01:50:48;;;;;;;8.63;4.15;;;19.80;53.60;;;;;;5010752;27;114866;-78
2023/09/21 01:53:19;;;;;;;7.45;4.07;;;19.80;54.40;;;;;;5027490;27;115164;-79
2023/09/21 01:55:48;;;;;;;8.75;3.72;;;19.70;54.50;;;;;;5028736;27;114322;-78
2023/09/21 01:58:19;;;;;;;5.97;2.80;;;19.60;54.90;;;;;;5011037;27;114775;-79
2023/09/21 02:00:46;;;;;;;8.23;3.47;;;19.50;54.30;;;;;;5011630;27;116291;-79
2023/09/21 02:03:17;;;;;;;7.28;4.03;;;19.60;54.80;;;;;;5044916;27;115129;-79
2023/09/21 02:05:46;;;;;;;5.47;1.92;;;19.60;55.20;;;;;;5028839;27;114192;-79
2023/09/21 02:08:17;;;;;;;7.07;3.17;;;19.60;53.90;;;;;;5045335;27;114600;-79
2023/09/21 02:10:49;;;;;;;3.80;2.10;;;19.40;54.60;;;;;;5011744;27;114875;-79
2023/09/21 02:13:19;;;;;;;;;;;19.40;54.30;;;;;;5028733;27;114912;-79
2023/09/21 02:15:51;;;;;;;3.25;1.63;;;19.30;54.10;;;;;;5027817;27;114249;-79
2023/09/21 02:18:19;;;;;;;3.37;1.90;;;19.10;54.60;;;;;;5045700;27;114362;-78
2023/09/21 02:20:49;;;;;;;4.18;2.25;;;19.00;54.70;;;;;;5044559;27;115663;-78
2023/09/21 02:23:22;;;;;;;4.82;2.20;;;18.90;55.30;;;;;;5045119;27;114575;-79
2023/09/21 02:25:52;;;;;;;4.05;1.63;;;18.90;55.20;;;;;;5046260;27;114052;-79
2023/09/21 02:28:19;;;;;;;3.85;1.77;;;18.90;55.10;;;;;;5046849;27;114131;-79
2023/09/21 02:30:48;;;;;;;3.53;1.90;;;18.90;55.30;;;;;;5045391;27;114926;-79
2023/09/21 02:33:16;;;;;;;3.50;1.38;;;18.80;55.40;;;;;;5027476;27;114716;-79
2023/09/21 02:35:46;;;;;;;6.72;2.75;;;18.80;55.40;;;;;;5048407;27;114535;-79
2023/09/21 02:38:13;;;;;;;3.80;1.92;;;18.80;56.10;;;;;;5031460;27;114311;-79
2023/09/21 02:40:45;;;;;;;5.03;1.90;;;18.70;55.80;;;;;;5048689;27;114919;-79
2023/09/21 02:43:13;;;;;;;4.82;1.95;;;18.80;55.50;;;;;;5048747;27;115047;-78
2023/09/21 02:45:40;;;;;;;4.13;1.88;;;18.70;55.70;;;;;;5031488;27;114398;-79
2023/09/21 02:48:08;;;;;;;4.22;2.10;;;18.60;55.80;;;;;;5031242;27;114268;-79
2023/09/21 02:50:35;;;;;;;5.53;2.33;;;18.60;55.80;;;;;;4997639;27;115670;-79
2023/09/21 02:53:08;;;;;;;5.68;2.75;;;18.60;55.90;;;;;;5028959;27;115189;-79
2023/09/21 02:55:36;;;;;;;4.97;2.78;;;18.60;56.00;;;;;;5014861;27;114288;-78
2023/09/21 02:58:11;;;;;;;5.05;2.70;;;18.60;56.50;;;;;;5014766;27;114247;-78
2023/09/21 03:00:51;;;;;;;7.13;2.38;;;18.60;55.90;;;;;;5030382;27;114919;-79
2023/09/21 03:03:20;;;;;;;6.25;2.88;;;18.60;56.00;;;;;;5015300;27;114567;-79
2023/09/21 03:05:49;;;;;;;6.53;2.90;;;18.60;56.00;;;;;;5050711;27;114022;-79
2023/09/21 03:08:17;;;;;;;5.38;2.83;;;18.60;55.90;;;;;;5016502;27;114129;-79
2023/09/21 03:10:49;;;;;;;4.10;2.67;;;18.60;56.30;;;;;;5030405;27;114801;-79
2023/09/21 03:13:18;;;;;;;5.95;2.55;;;18.70;55.80;;;;;;5029909;27;114798;-78
2023/09/21 03:15:58;;;;;;;4.88;2.55;;;18.60;55.70;;;;;;5030809;27;114362;-79
2023/09/21 03:18:28;;;;;;;4.82;2.53;;;18.60;55.90;;;;;;5032060;27;114277;-78
2023/09/21 03:20:56;;;;;;;5.47;2.55;;;18.50;56.10;;;;;;5031030;27;114844;-79
2023/09/21 03:23:26;;;;;;;3.88;2.22;;;18.60;56.80;;;;;;5047104;27;115608;-79
2023/09/21 03:25:54;;;;;;;6.78;2.17;;;18.80;55.70;;;;;;5031063;27;114509;-79
2023/09/21 03:28:24;;;;;;;4.25;1.95;;;18.90;55.40;;;;;;5049039;27;114542;-79
2023/09/21 03:30:54;;;;;;;3.92;2.00;;;18.90;55.80;;;;;;5029860;27;116177;-80
2023/09/21 03:33:22;;;;;;;3.83;1.98;;;18.90;55.20;;;;;;5013239;27;114635;-80
2023/09/21 03:35:49;;;;;;;4.20;2.15;;;18.80;55.20;;;;;;5014120;27;114137;-79
2023/09/21 03:38:19;;;;;;;3.65;2.05;;;18.80;55.40;;;;;;5030808;27;114312;-79
2023/09/21 03:40:50;;;;;;;5.15;2.00;;;18.80;56.10;;;;;;5047808;27;115311;-79
2023/09/21 03:43:21;;;;;;;3.42;1.90;;;19.00;55.10;;;;;;5047254;27;115016;-80
2023/09/21 03:45:48;;;;;;;5.07;2.30;;;18.90;55.40;;;;;;5029511;27;114411;-79
2023/09/21 03:48:16;;;;;;;4.05;2.20;;;18.90;55.70;;;;;;5029932;27;114261;-79
2023/09/21 03:50:44;;;;;;;3.80;2.20;;;19.00;56.00;;;;;;5029082;27;114899;-78
2023/09/21 03:53:13;;;;;;;4.93;2.30;;;19.20;55.70;;;;;;5012958;27;114590;-80
2023/09/21 03:55:41;;;;;;;5.55;2.70;;;19.30;55.20;;;;;;5029513;27;114217;-79
2023/09/21 03:58:08;;;;;;;4.18;2.38;;;19.50;55.20;;;;;;5030487;27;114152;-79
2023/09/21 04:03:10;;;;;;;5.75;2.85;;;19.80;54.60;;;;;;5012377;27;117354;-79
2023/09/21 04:05:49;;;;;;;4.82;2.20;;;19.80;54.60;;;;;;5015452;27;114285;-78
2023/09/21 04:08:16;;;;;;;5.53;2.83;;;19.80;53.40;;;;;;5030129;27;114337;-79
2023/09/21 04:10:43;;;;;;;6.43;2.65;;;19.80;53.90;;;;;;5029037;27;114945;-79
2023/09/21 04:13:10;;;;;;;4.82;3.03;;;19.80;53.60;;;;;;5047636;27;115051;-79
2023/09/21 04:15:37;;;;;;;4.78;2.80;;;19.80;53.70;;;;;;5029871;27;114221;-79
2023/09/21 04:18:09;;;;;;;8.30;2.70;;;19.80;53.80;;;;;;5048052;27;114102;-78
2023/09/21 04:20:39;;;;;;;3.83;2.50;;;19.80;53.10;;;;;;5028580;27;114971;-80
2023/09/21 04:23:07;;;;;;;4.57;2.20;;;19.70;53.10;;;;;;5047256;27;114633;-79
2023/09/21 04:25:34;;;;;;;4.85;2.60;;;19.60;53.00;;;;;;5030067;27;114028;-79
2023/09/21 04:28:02;;;;;;;5.88;2.40;;;19.40;53.40;;;;;;5030273;27;114254;-78
2023/09/21 04:30:34;;;;;;;5.35;2.97;;;19.30;53.40;;;;;;5028598;27;114964;-80
2023/09/21 04:33:01;;;;;;;5.03;3.20;;;19.20;54.40;;;;;;5047094;27;114685;-78
2023/09/21 04:35:29;;;;;;;4.30;2.15;;;19.30;55.00;;;;;;5029738;27;114350;-79
2023/09/21 04:37:56;;;;;;;6.38;2.83;;;19.40;54.20;;;;;;5030162;27;114016;-79
2023/09/21 04:40:26;;;;;;;5.55;2.38;;;19.50;54.30;;;;;;5027957;27;115551;-79
2023/09/21 04:42:56;;;;;;;4.85;3.10;;;19.40;53.40;;;;;;5012358;27;115098;-79
2023/09/21 04:45:26;;;;;;;7.53;2.05;;;19.40;53.90;;;;;;5028876;27;114181;-78
2023/09/21 04:48:03;;;;;;;7.07;2.83;;;19.30;53.80;;;;;;5029569;27;114322;-79
2023/09/21 04:50:35;;;;;;;4.45;1.75;;;19.40;53.80;;;;;;5028321;27;114911;-79
2023/09/21 04:53:02;;;;;;;6.78;3.20;;;19.50;53.20;;;;;;5028299;27;114858;-79
2023/09/21 04:55:31;;;;;;;4.97;2.78;;;19.50;54.30;;;;;;5029355;27;114605;-79
2023/09/21 04:57:58;;;;;;;6.93;2.80;;;19.60;54.30;;;;;;5012735;27;114037;-79
2023/09/21 05:00:25;;;;;;;5.07;2.63;;;19.80;54.20;;;;;;5028212;27;114912;-79
2023/09/21 05:02:53;;;;;;;5.05;2.95;;;19.90;54.00;;;;;;5012052;27;115165;-79
2023/09/21 05:05:26;;;;;;;3.40;1.65;;;20.10;53.60;;;;;;5012313;27;114470;-79
2023/09/21 05:07:54;;;;;;;3.33;1.90;;;20.20;52.30;;;;;;5029093;27;114137;-79
2023/09/21 05:10:21;;;;;;;4.88;1.92;;;20.30;51.80;;;;;;5009726;27;117734;-79
2023/09/21 05:12:51;;;;;;;3.78;1.42;;;20.30;52.20;;;;;;5046117;27;114807;-79
2023/09/21 05:15:19;;;;;;;4.43;1.80;;;20.50;51.30;;;;;;5047033;27;114326;-80
2023/09/21 05:17:46;;;;;;;3.92;1.50;;;20.60;50.90;;;;;;5028737;27;114120;-80
2023/09/21 05:20:15;;;;;;;5.53;1.63;;;20.60;50.90;;;;;;5046265;27;115484;-78
2023/09/21 05:22:42;;;;;;;3.88;2.03;;;20.70;50.80;;;;;;5028098;27;114613;-80
2023/09/21 05:25:10;;;;;;;5.18;2.00;;;20.80;51.10;;;;;;5012185;27;114145;-79
2023/09/21 05:27:37;;;;;;;6.78;1.85;;;21.00;51.30;;;;;;5047236;27;114113;-80
2023/09/21 05:30:05;;;;;;;4.82;2.75;;;21.20;49.80;;;;;;5046192;27;114964;-80
2023/09/21 05:32:32;;;;;;;5.30;1.60;;;21.20;49.80;;;;;;5045770;27;114699;-80
2023/09/21 05:35:05;;;;;;;5.38;2.10;;;21.30;49.50;;;;;;5028826;27;114210;-80
2023/09/21 05:37:34;;;;;;;3.97;2.28;;;21.30;49.50;;;;;;5029055;27;114097;-79
2023/09/21 05:40:05;;;;;;;3.28;1.80;;;21.50;49.90;;;;;;5027351;27;116678;-80
2023/09/21 05:42:34;;;;;;;6.30;1.85;;;21.70;48.80;;;;;;5027884;27;114594;-80
2023/09/21 05:45:01;;;;;;;8.70;2.08;;;21.80;48.70;;;;;;5028461;27;114260;-81
2023/09/21 05:47:29;;;;;;;4.25;1.70;;;22.00;48.10;;;;;;5046704;27;114044;-80
2023/09/21 05:49:56;;;;;;;5.38;2.20;;;22.20;48.20;;;;;;5045687;27;115687;-80
2023/09/21 05:52:24;;;;;;;4.72;1.80;;;22.30;47.80;;;;;;5045764;27;116039;-80
2023/09/21 05:54:52;;;;;;;3.47;1.35;;;22.40;47.80;;;;;;5046841;27;114124;-80
2023/09/21 05:57:19;;;;;;;5.22;1.92;;;22.60;47.20;;;;;;5012491;27;114262;-80
2023/09/21 05:59:47;;;;;;;4.30;1.73;;;22.80;47.00;;;;;;5013872;27;114950;-80
2023/09/21 06:02:15;;;;;;;4.32;1.60;;;22.90;46.50;;;;;;5034313;27;115930;-80
2023/09/21 06:04:42;;;;;;;7.25;2.45;;;23.10;46.10;;;;;;5028423;27;114159;-80
2023/09/21 06:07:11;;;;;;;5.97;2.10;;;23.20;45.80;;;;;;5045560;27;114268;-80
2023/09/21 06:09:38;;;;;;;6.60;1.80;;;23.30;46.00;;;;;;5027985;27;114941;-80
2023/09/21 06:12:07;;;;;;;4.53;1.92;;;23.40;45.60;;;;;;5051521;27;114719;-80
2023/09/21 06:14:37;;;;;;;4.35;1.80;;;23.50;45.30;;;;;;5052270;27;114350;-80
2023/09/21 06:17:10;;;;;;;4.57;1.80;;;23.60;44.90;;;;;;5050700;27;114052;-81
2023/09/21 06:19:39;;;;;;;5.80;1.83;;;23.70;44.80;;;;;;5049408;27;115008;-80
2023/09/21 06:22:06;;;;;;;5.40;1.77;;;23.80;45.00;;;;;;5049344;27;114828;-80
2023/09/21 06:24:33;;;;;;;3.85;1.63;;;23.80;44.50;;;;;;5050054;27;114222;-79
2023/09/21 06:27:01;;;;;;;6.78;2.08;;;23.80;44.50;;;;;;5050710;27;114549;-79
2023/09/21 06:29:28;;;;;;;4.50;1.88;;;24.00;44.40;;;;;;5049172;27;115519;-81
2023/09/21 06:31:56;;;;;;;5.60;2.40;;;24.10;44.20;;;;;;5013860;27;115781;-79
2023/09/21 06:34:41;;;;;;;9.05;1.70;;;24.20;44.00;;;;;;5049887;27;114318;-79
2023/09/21 06:37:10;;;;;;;10.10;4.05;;;24.30;43.70;;;;;;5031811;27;114198;-81
2023/09/21 06:39:37;;;;;;;5.63;2.03;;;24.20;43.70;;;;;;5031552;27;115440;-79
2023/09/21 06:42:04;;;;;;;4.80;1.98;;;24.10;43.70;;;;;;5049339;27;114718;-80
2023/09/21 06:44:31;;;;;;;3.72;1.58;;;24.10;44.00;;;;;;5049531;27;114668;-80
2023/09/21 06:46:58;;;;;;;4.80;1.60;;;24.00;43.90;;;;;;5049520;27;114128;-81
2023/09/21 06:49:26;;;;;;;4.53;1.70;;;24.10;43.50;;;;;;5047978;27;115096;-80
2023/09/21 06:51:56;;;;;;;6.25;2.03;;;23.80;44.00;;;;;;5013318;27;117515;-79
2023/09/21 06:54:23;;;;;;;4.28;2.10;;;23.80;44.50;;;;;;5031583;27;114419;-79
2023/09/21 06:56:51;;;;;;;4.25;2.05;;;23.80;44.40;;;;;;5049462;27;114254;-80
2023/09/21 06:59:18;;;;;;;4.80;1.75;;;23.80;44.20;;;;;;5013524;27;114972;-80
2023/09/21 07:01:46;;;;;;;3.20;1.75;;;23.80;44.20;;;;;;5013453;27;116130;-80
2023/09/21 07:04:13;;;;;;;5.57;1.90;;;23.80;44.20;;;;;;5030046;27;114309;-80
2023/09/21 07:06:40;;;;;;;4.55;1.92;;;23.80;44.30;;;;;;5014237;27;114333;-80
2023/09/21 07:09:09;;;;;;;5.90;2.20;;;23.80;44.40;;;;;;5048203;27;114964;-80
2023/09/21 07:11:37;;;;;;;7.00;1.98;;;23.80;44.20;;;;;;5047871;27;114512;-79
2023/09/21 07:14:05;;;;;;;4.22;1.98;;;23.80;43.90;;;;;;5048090;27;114354;-80
2023/09/21 07:16:33;;;;;;;5.15;1.95;;;23.80;43.80;;;;;;5048535;27;114428;-79
2023/09/21 07:19:00;;;;;;;5.45;2.10;;;23.60;44.30;;;;;;5047737;27;114927;-80
2023/09/21 07:21:27;;;;;;;5.55;3.15;;;23.60;44.70;;;;;;5030209;27;115087;-79
2023/09/21 07:23:54;;;;;;;6.22;3.20;;;23.70;44.40;;;;;;5048930;27;114295;-81
2023/09/21 07:26:21;;;;;;;8.13;3.60;;;23.60;44.30;;;;;;5030670;27;115007;-79
2023/09/21 07:28:49;;;;;;;7.80;3.95;;;23.60;44.70;;;;;;5029838;27;114953;-81
2023/09/21 07:31:16;;;;;;;6.03;3.47;;;23.60;44.90;;;;;;5048321;27;114620;-80
2023/09/21 07:33:43;;;;;;;9.05;4.07;;;23.70;44.40;;;;;;5048422;27;114187;-80
2023/09/21 07:36:11;;;;;;;7.82;4.20;;;23.70;44.90;;;;;;5048552;27;114194;-80
2023/09/21 07:38:41;;;;;;;8.35;4.43;;;23.80;44.40;;;;;;5028613;27;118199;-81
2023/09/21 07:41:08;;;;;;;6.78;3.80;;;23.80;44.30;;;;;;5047517;27;114720;-80
2023/09/21 07:43:36;;;;;;;11.27;4.07;;;23.90;44.20;;;;;;5013643;27;114193;-80
2023/09/21 07:46:03;;;;;;;8.80;3.70;;;23.80;44.20;;;;;;5030448;27;114088;-79
2023/09/21 07:48:30;;;;;;;10.73;4.05;;;23.80;44.10;;;;;;5029269;27;117398;-80
2023/09/21 07:51:01;;;;;;;7.05;2.72;;;23.70;44.60;;;;;;5029512;27;114657;-80
2023/09/21 07:53:29;;;;;;;8.40;2.50;;;23.80;44.50;;;;;;5013477;27;114348;-79
2023/09/21 07:56:01;;;;;;;4.95;2.65;;;23.80;44.20;;;;;;5048539;27;114144;-80
2023/09/21 07:58:28;;;;;;;3.97;2.00;;;23.70;44.50;;;;;;5029247;27;114921;-81
2023/09/21 08:00:55;;;;;;;6.20;2.10;;;23.70;44.50;;;;;;5047626;27;114709;-80
2023/09/21 08:03:26;;;;;;;5.40;1.85;;;23.70;44.50;;;;;;5047930;27;114280;-79
2023/09/21 08:05:53;;;;;;;3.85;1.73;;;23.80;44.30;;;;;;5031363;27;114669;-80
2023/09/21 08:08:21;;;;;;;6.40;1.80;;;23.80;44.20;;;;;;5018466;27;114999;-79
2023/09/21 08:10:50;;;;;;;3.53;1.70;;;23.70;44.50;;;;;;5028369;27;116396;-82
2023/09/21 08:13:17;;;;;;;5.82;1.98;;;23.80;44.40;;;;;;5047807;27;114370;-80
2023/09/21 08:15:44;;;;;;;6.63;2.05;;;23.80;44.70;;;;;;5029802;27;114070;-79
2023/09/21 08:18:14;;;;;;;4.05;1.95;;;24.00;44.50;;;;;;5046315;27;115159;-81
2023/09/21 08:20:42;;;;;;;4.75;2.10;;;24.20;44.20;;;;;;5012753;27;114817;-80
2023/09/21 08:23:09;;;;;;;6.47;2.20;;;24.30;43.60;;;;;;5029696;27;114586;-80
2023/09/21 08:25:37;;;;;;;4.80;2.22;;;24.40;43.70;;;;;;5047866;27;114325;-81
2023/09/21 08:28:04;;;;;;;3.88;2.17;;;24.50;43.40;;;;;;5046262;27;115227;-81
2023/09/21 08:30:32;;;;;;;5.20;1.98;;;24.60;43.40;;;;;;5028625;27;116690;-80
2023/09/21 08:33:07;;;;;;;4.97;2.08;;;24.80;42.50;;;;;;5047096;27;114355;-81
2023/09/21 08:35:34;;;;;;;6.43;2.22;;;24.80;42.00;;;;;;5012998;27;114393;-80
2023/09/21 08:38:03;;;;;;;5.15;2.50;;;24.70;42.40;;;;;;5028737;27;115384;-80
2023/09/21 08:40:30;;;;;;;7.93;3.08;;;24.80;41.90;;;;;;5028296;27;114784;-80
2023/09/21 08:42:59;;;;;;;9.20;3.67;;;24.80;41.90;;;;;;5012555;27;114242;-79
2023/09/21 08:45:26;;;;;;;8.27;3.30;;;24.80;42.00;;;;;;5029531;27;114538;-81
2023/09/21 08:47:54;;;;;;;8.32;2.53;;;24.80;41.90;;;;;;5011735;27;117057;-81
2023/09/21 08:50:21;;;;;;;5.88;2.05;;;24.80;41.60;;;;;;5028133;27;115277;-80
2023/09/21 08:52:48;;;;;;;5.55;2.15;;;24.80;41.20;;;;;;5028812;27;114318;-80
2023/09/21 08:55:16;;;;;;;9.07;2.38;;;24.90;41.10;;;;;;5012272;27;114443;-81
2023/09/21 08:57:43;;;;;;;9.38;2.17;;;24.80;40.70;;;;;;5028495;27;114968;-80
2023/09/21 09:00:11;;;;;;;6.32;2.22;;;24.70;41.00;;;;;;5047480;27;114535;-80
2023/09/21 09:02:39;;;;;;;5.82;1.63;;;24.70;41.20;;;;;;5049724;27;113998;-80
2023/09/21 09:05:07;;;;;;;6.38;2.30;;;24.70;40.70;;;;;;5014784;27;114513;-80
2023/09/21 09:07:41;;;;;;;4.22;1.50;;;24.70;40.90;;;;;;5028603;27;115179;-79
2023/09/21 09:10:11;;;;;;;3.30;1.85;;;24.60;41.00;;;;;;5012698;27;115276;-81
2023/09/21 09:12:39;;;;;;;6.25;1.77;;;24.50;41.30;;;;;;5046098;27;114485;-84
2023/09/21 09:15:08;;;;;;;5.22;1.73;;;24.40;41.10;;;;;;5048401;27;114188;-80
2023/09/21 09:17:36;;;;;;;3.75;1.70;;;24.40;41.30;;;;;;5029170;27;116964;-80
2023/09/21 09:20:05;;;;;;;4.15;1.70;;;24.30;41.30;;;;;;5013005;27;114255;-79
2023/09/21 09:22:34;;;;;;;4.45;1.98;;;24.30;41.50;;;;;;5029272;27;114313;-81
2023/09/21 09:25:07;;;;;;;4.63;1.95;;;24.30;41.70;;;;;;5028776;27;114488;-80
2023/09/21 09:27:34;;;;;;;5.65;1.90;;;24.40;41.50;;;;;;5012113;27;115026;-80
2023/09/21 09:30:04;;;;;;;7.10;2.85;;;24.50;41.30;;;;;;5028451;27;116129;-80
2023/09/21 09:32:41;;;;;;;4.72;2.40;;;24.50;41.10;;;;;;5046776;27;113963;-80
2023/09/21 09:35:13;;;;;;;5.28;2.17;;;24.30;41.30;;;;;;5047384;27;114447;-80
2023/09/21 09:37:44;;;;;;;6.35;2.20;;;24.30;41.30;;;;;;5011972;27;114965;-79
2023/09/21 09:40:18;;;;;;;6.15;2.75;;;24.40;41.00;;;;;;5045806;27;114724;-80
2023/09/21 09:42:46;;;;;;;3.92;2.10;;;24.40;41.30;;;;;;5046214;27;114544;-80
2023/09/21 09:45:24;;;;;;;3.97;2.10;;;24.50;41.50;;;;;;5027713;27;114175;-80
2023/09/21 09:47:56;;;;;;;7.80;2.00;;;24.60;41.30;;;;;;5045534;27;115565;-81
2023/09/21 09:50:29;;;;;;;6.93;2.30;;;24.70;41.20;;;;;;5045716;27;114971;-80
2023/09/21 09:53:03;;;;;;;7.07;2.03;;;24.70;40.80;;;;;;5028564;27;114514;-79
2023/09/21 09:55:33;;;;;;;7.38;2.05;;;24.70;40.70;;;;;;5011906;27;114459;-80
2023/09/21 09:58:00;;;;;;;7.72;3.08;;;24.70;40.70;;;;;;5046026;27;115122;-80
2023/09/21 10:00:28;;;;;;;4.28;1.85;;;24.70;40.50;;;;;;5045958;27;114851;-79
2023/09/21 10:02:56;;;;;;;8.20;2.33;;;24.80;40.30;;;;;;5028787;27;114400;-79
2023/09/21 10:05:26;;;;;;;5.43;1.98;;;24.80;40.70;;;;;;5011339;27;114501;-79
2023/09/21 10:07:59;;;;;;;6.95;2.50;;;24.80;40.50;;;;;;5045139;27;115385;-80
2023/09/21 10:10:30;;;;;;;3.90;2.05;;;25.00;40.30;;;;;;5045773;27;114795;-80
2023/09/21 10:12:57;;;;;;;5.95;2.17;;;25.00;39.60;;;;;;5028958;27;114220;-78
2023/09/21 10:15:24;;;;;;;6.55;2.10;;;24.90;39.60;;;;;;4995353;27;114344;-80
2023/09/21 10:17:54;;;;;;;6.72;1.85;;;25.00;40.10;;;;;;5044217;27;115292;-80
2023/09/21 10:20:27;;;;;;;4.35;1.75;;;25.10;39.80;;;;;;5045532;27;114583;-79
2023/09/21 10:22:55;;;;;;;7.20;2.10;;;25.10;39.60;;;;;;5028969;27;114198;-80
2023/09/21 10:25:37;;;;;;;4.60;1.98;;;25.10;39.40;;;;;;5046301;27;114108;-80
2023/09/21 10:28:29;;;;;;;6.20;2.15;;;24.90;39.40;;;;;;5045035;27;114826;-82
2023/09/21 10:31:09;;;;;;;4.50;1.67;;;24.90;39.70;;;;;;5045067;27;114937;-80
2023/09/21 10:33:37;;;;;;;9.23;3.58;;;24.80;39.80;;;;;;5048030;27;114236;-80
2023/09/21 10:36:04;;;;;;;4.43;1.98;;;24.80;39.70;;;;;;5047297;27;114274;-80
2023/09/21 10:38:31;;;;;;;5.10;2.90;;;24.80;39.80;;;;;;5044650;27;116944;-80
2023/09/21 10:41:03;;;;;;;7.80;3.63;;;24.80;39.80;;;;;;5027260;27;114647;-79
2023/09/21 10:43:39;;;;;;;4.38;1.70;;;24.80;39.40;;;;;;5011816;27;114137;-79
2023/09/21 10:46:21;;;;;;;5.22;1.70;;;24.80;39.50;;;;;;5045914;27;114626;-80
2023/09/21 10:48:57;;;;;;;5.63;1.60;;;24.80;39.70;;;;;;5010694;27;118728;-79
2023/09/21 10:51:25;;;;;;;4.32;1.83;;;24.80;39.10;;;;;;5045205;27;115036;-81
2023/09/21 10:53:54;;;;;;;3.92;1.60;;;24.80;38.90;;;;;;5027696;27;114101;-80
2023/09/21 10:56:23;;;;;;;5.20;1.90;;;24.70;38.90;;;;;;5029812;27;114160;-80
2023/09/21 10:58:50;;;;;;;6.20;2.08;;;24.70;38.80;;;;;;5013137;27;114605;-80
2023/09/21 11:01:18;;;;;;;4.10;1.80;;;24.50;39.10;;;;;;5013463;27;114767;-79
2023/09/21 11:03:48;;;;;;;11.40;2.03;;;24.40;39.40;;;;;;5014310;27;114372;-80
2023/09/21 11:06:19;;;;;;;4.68;1.98;;;24.50;39.00;;;;;;5031393;27;114364;-79
2023/09/21 11:08:47;;;;;;;3.47;1.80;;;24.50;38.80;;;;;;5048269;27;115332;-79
2023/09/21 11:11:15;;;;;;;6.85;2.05;;;24.50;39.10;;;;;;5013397;27;115860;-79
2023/09/21 11:13:42;;;;;;;7.60;2.05;;;24.70;39.50;;;;;;5049075;27;114468;-79
2023/09/21 11:16:09;;;;;;;5.38;2.10;;;24.70;38.60;;;;;;5049503;27;114231;-79
2023/09/21 11:18:36;;;;;;;4.90;2.60;;;24.80;38.40;;;;;;5029420;27;116172;-80
2023/09/21 11:21:03;;;;;;;5.47;2.45;;;24.80;38.30;;;;;;5030324;27;114760;-79
2023/09/21 11:23:32;;;;;;;5.32;2.10;;;24.80;38.40;;;;;;5030993;27;114311;-80
2023/09/21 11:26:00;;;;;;;5.63;2.13;;;24.90;38.30;;;;;;5014538;27;114312;-80
2023/09/21 11:28:32;;;;;;;5.05;2.20;;;24.80;38.10;;;;;;5012967;27;118982;-79
2023/09/21 11:31:00;;;;;;;5.20;2.10;;;24.90;38.10;;;;;;5029651;27;118608;-80
2023/09/21 11:33:28;;;;;;;4.75;2.22;;;24.90;37.90;;;;;;5030832;27;114552;-80
2023/09/21 11:35:55;;;;;;;5.20;2.22;;;24.90;37.80;;;;;;5047595;27;114342;-79
2023/09/21 11:38:22;;;;;;;4.75;2.30;;;24.80;37.80;;;;;;5047628;27;115121;-80
2023/09/21 11:40:49;;;;;;;5.15;2.40;;;24.80;38.40;;;;;;5047835;27;114558;-79
2023/09/21 11:43:17;;;;;;;6.05;2.30;;;24.80;38.10;;;;;;5048516;27;114108;-79
2023/09/21 11:45:47;;;;;;;3.63;2.25;;;24.80;37.90;;;;;;5030544;27;115085;-79
2023/09/21 11:48:15;;;;;;;5.15;1.88;;;24.80;38.40;;;;;;5047390;27;114953;-80
2023/09/21 11:50:44;;;;;;;7.05;2.10;;;24.80;38.60;;;;;;5047428;27;116745;-80
2023/09/21 11:53:12;;;;;;;4.82;2.00;;;24.80;38.60;;;;;;5013976;27;114171;-79
2023/09/21 11:55:40;;;;;;;4.72;2.38;;;24.80;38.60;;;;;;5030410;27;114223;-80
2023/09/21 11:58:14;;;;;;;6.13;2.33;;;24.80;38.70;;;;;;5029312;27;117817;-79
2023/09/21 12:00:44;;;;;;;;;;;24.80;39.00;;;;;;5014361;27;114582;-79
2023/09/21 12:03:21;;;;;;;6.57;3.15;;;24.80;39.20;;;;;;5033065;27;114242;-80
2023/09/21 12:05:51;;;;;;;5.30;2.50;;;24.80;39.00;;;;;;5036667;27;114150;-81
2023/09/21 12:08:21;;;;;;;11.02;4.13;;;24.80;39.10;;;;;;5015848;27;114907;-79
2023/09/21 12:10:50;;;;;;;4.95;2.72;;;24.70;39.40;;;;;;5032532;27;114793;-79
2023/09/21 12:13:18;;;;;;;4.40;2.40;;;24.70;39.60;;;;;;5013346;27;114239;-80
2023/09/21 12:15:46;;;;;;;5.03;2.92;;;24.80;39.50;;;;;;5030457;27;114305;-81
2023/09/21 12:18:13;;;;;;;6.47;2.55;;;24.80;39.50;;;;;;5029155;27;114885;-80
2023/09/21 12:20:49;;;;;;;7.38;2.78;;;24.80;39.60;;;;;;5048779;27;114625;-80
2023/09/21 12:23:16;;;;;;;7.90;2.70;;;24.80;39.50;;;;;;5032164;27;114574;-80
2023/09/21 12:25:45;;;;;;;5.75;3.00;;;24.80;39.70;;;;;;5030102;27;114153;-80
2023/09/21 12:28:12;;;;;;;5.75;2.75;;;24.80;39.80;;;;;;5046815;27;116110;-79
2023/09/21 12:30:42;;;;;;;5.18;3.25;;;24.70;40.10;;;;;;5029139;27;115917;-79
2023/09/21 12:33:11;;;;;;;5.68;2.70;;;24.60;40.50;;;;;;5029676;27;114322;-80
2023/09/21 12:35:57;;;;;;;4.70;3.33;;;24.60;40.40;;;;;;5018890;27;114281;-80
2023/09/21 12:38:24;;;;;;;5.80;3.30;;;24.50;40.50;;;;;;5028622;27;115068;-79
2023/09/21 12:40:52;;;;;;;6.70;3.30;;;24.50;40.80;;;;;;5047067;27;114667;-79
2023/09/21 12:43:20;;;;;;;5.28;2.90;;;24.40;40.80;;;;;;5030985;27;114319;-80
2023/09/21 12:45:49;;;;;;;6.55;3.03;;;24.40;40.80;;;;;;5029745;27;114517;-80
2023/09/21 12:48:17;;;;;;;5.57;3.17;;;24.30;41.20;;;;;;5046429;27;114877;-81